International Virtual Aviation Organisation

Russian Federation and Kazakhstan MCD

 

Карточка аэропорта UUDD

Внимание!
Информация на этой странице в стадии наполнения.
Если вы не увидели какой-то информации, или заметили неточность - пожалуйста сообщите нам!
Спасибо!
Команда RU-STAFF
Название аэропортаДомодедово
Название аэропорта (англ.)Domodedovo
Превышение594 ft. (181.1 m.)
Координаты55°24.516', 37°54.384'
Высота перехода1200 m
Эшелон переходаBy ATC
Коды ответчика1540-1577
Зона ОрВДМосква РПИ (UUWV)
Данные METARNODATA
Проноз погоды (TAF)UUDD 131001Z 1310/1415 16006MPS 8000 BKN011 TX01/1311Z TNM02/1405Z TEMPO 1310/1321 -FZDZ -SN FEW005 OVC011 TEMPO 1321/1409 3100 -SN BR FEW004 OVC011 PROB40 TEMPO 1321/1409 -FZDZ OVC004
NOTAMshow/hide NOTAM
AWOS   TABLE

Информация о ВПП

ВПП Длина ВПП (м.) Покрытие Курс ВПП Частота ILS
14L3793Бетон136108.5
32R3793Бетон316111.9
14R3500Цементобетон136110.1
32L3500Цементобетон316109.3

Диспетчерские позиции

Позывной Наименование органа УВД Частота
UUDD_GNDДомодедово-Перрон119.000
UUDD_R_APPДомодедово-Круг127.700
UUDD_TWRДомодедово-Вышка119.700
UUDD_DELДомодедово-Деливери 129.150
UUDDFM1Машина сопровождения119.000



Спутниковое изображение